sensor_id;sensor_type;location;lat;lon;timestamp;P1;durP1;ratioP1;P2;durP2;ratioP2
39740;SDS011;25426;53.478;10.190;2024-02-21T00:00:43;38.80;;;21.15;;
39740;SDS011;25426;53.478;10.190;2024-02-21T00:03:14;39.72;;;20.42;;
39740;SDS011;25426;53.478;10.190;2024-02-21T00:05:45;36.90;;;19.40;;
39740;SDS011;25426;53.478;10.190;2024-02-21T00:08:16;34.97;;;18.80;;
39740;SDS011;25426;53.478;10.190;2024-02-21T00:10:48;37.85;;;19.77;;
39740;SDS011;25426;53.478;10.190;2024-02-21T00:13:19;32.55;;;19.55;;
39740;SDS011;25426;53.478;10.190;2024-02-21T00:15:50;32.00;;;18.23;;
39740;SDS011;25426;53.478;10.190;2024-02-21T00:18:21;31.88;;;19.27;;
39740;SDS011;25426;53.478;10.190;2024-02-21T00:20:52;40.05;;;19.83;;
39740;SDS011;25426;53.478;10.190;2024-02-21T00:23:23;32.53;;;19.17;;
39740;SDS011;25426;53.478;10.190;2024-02-21T00:25:54;34.10;;;20.25;;
39740;SDS011;25426;53.478;10.190;2024-02-21T00:28:25;37.47;;;19.52;;
39740;SDS011;25426;53.478;10.190;2024-02-21T00:30:55;33.30;;;20.60;;
39740;SDS011;25426;53.478;10.190;2024-02-21T00:33:26;36.58;;;20.15;;
39740;SDS011;25426;53.478;10.190;2024-02-21T00:35:57;41.15;;;19.40;;
39740;SDS011;25426;53.478;10.190;2024-02-21T00:38:28;36.13;;;20.20;;
39740;SDS011;25426;53.478;10.190;2024-02-21T00:40:59;38.90;;;20.20;;
39740;SDS011;25426;53.478;10.190;2024-02-21T00:43:30;35.72;;;19.40;;
39740;SDS011;25426;53.478;10.190;2024-02-21T00:46:01;32.40;;;19.65;;
39740;SDS011;25426;53.478;10.190;2024-02-21T00:48:32;36.20;;;20.33;;
39740;SDS011;25426;53.478;10.190;2024-02-21T00:51:04;37.35;;;20.98;;
39740;SDS011;25426;53.478;10.190;2024-02-21T00:53:35;34.50;;;19.95;;
39740;SDS011;25426;53.478;10.190;2024-02-21T00:56:08;32.90;;;19.90;;
39740;SDS011;25426;53.478;10.190;2024-02-21T00:58:39;29.98;;;20.80;;
39740;SDS011;25426;53.478;10.190;2024-02-21T01:01:10;40.30;;;21.33;;
39740;SDS011;25426;53.478;10.190;2024-02-21T01:03:40;33.15;;;19.40;;
39740;SDS011;25426;53.478;10.190;2024-02-21T01:06:11;32.88;;;21.17;;
39740;SDS011;25426;53.478;10.190;2024-02-21T01:08:42;35.53;;;21.02;;
39740;SDS011;25426;53.478;10.190;2024-02-21T01:11:14;38.10;;;22.55;;
39740;SDS011;25426;53.478;10.190;2024-02-21T01:13:46;31.73;;;21.25;;
39740;SDS011;25426;53.478;10.190;2024-02-21T01:16:16;41.50;;;21.80;;
39740;SDS011;25426;53.478;10.190;2024-02-21T01:18:47;39.58;;;21.23;;
39740;SDS011;25426;53.478;10.190;2024-02-21T01:21:18;41.75;;;22.35;;
39740;SDS011;25426;53.478;10.190;2024-02-21T01:23:49;42.45;;;22.98;;
39740;SDS011;25426;53.478;10.190;2024-02-21T01:26:20;39.33;;;22.50;;
39740;SDS011;25426;53.478;10.190;2024-02-21T01:28:51;37.45;;;22.98;;
39740;SDS011;25426;53.478;10.190;2024-02-21T01:31:22;36.85;;;21.65;;
39740;SDS011;25426;53.478;10.190;2024-02-21T01:33:53;38.22;;;21.02;;
39740;SDS011;25426;53.478;10.190;2024-02-21T01:36:24;34.67;;;21.73;;
39740;SDS011;25426;53.478;10.190;2024-02-21T01:38:55;35.65;;;22.80;;
39740;SDS011;25426;53.478;10.190;2024-02-21T01:41:26;34.95;;;23.05;;
39740;SDS011;25426;53.478;10.190;2024-02-21T01:43:57;38.55;;;23.00;;
39740;SDS011;25426;53.478;10.190;2024-02-21T01:46:28;41.00;;;21.00;;
39740;SDS011;25426;53.478;10.190;2024-02-21T01:49:00;29.35;;;20.23;;
39740;SDS011;25426;53.478;10.190;2024-02-21T01:51:31;38.45;;;22.27;;
39740;SDS011;25426;53.478;10.190;2024-02-21T01:54:02;33.85;;;20.55;;
39740;SDS011;25426;53.478;10.190;2024-02-21T01:56:33;33.00;;;20.38;;
39740;SDS011;25426;53.478;10.190;2024-02-21T01:59:04;30.35;;;19.58;;
39740;SDS011;25426;53.478;10.190;2024-02-21T02:01:35;35.75;;;20.73;;
39740;SDS011;25426;53.478;10.190;2024-02-21T02:04:06;33.15;;;20.25;;
39740;SDS011;25426;53.478;10.190;2024-02-21T02:06:37;31.70;;;20.20;;
39740;SDS011;25426;53.478;10.190;2024-02-21T02:09:08;28.35;;;18.05;;
39740;SDS011;25426;53.478;10.190;2024-02-21T07:10:30;14.77;;;10.53;;
39740;SDS011;25426;53.478;10.190;2024-02-21T07:13:01;13.05;;;9.60;;
39740;SDS011;25426;53.478;10.190;2024-02-21T07:29:57;17.85;;;12.60;;
39740;SDS011;25426;53.478;10.190;2024-02-21T07:32:28;15.27;;;10.90;;
39740;SDS011;25426;53.478;10.190;2024-02-21T07:34:59;14.40;;;11.30;;
39740;SDS011;25426;53.478;10.190;2024-02-21T07:37:30;15.40;;;11.13;;
39740;SDS011;25426;53.478;10.190;2024-02-21T07:40:01;12.02;;;9.80;;
39740;SDS011;25426;53.478;10.190;2024-02-21T08:54:15;9.68;;;8.02;;
39740;SDS011;25426;53.478;10.190;2024-02-21T08:56:47;11.13;;;7.60;;
39740;SDS011;25426;53.478;10.190;2024-02-21T08:59:18;10.90;;;7.40;;
39740;SDS011;25426;53.478;10.190;2024-02-21T09:01:49;9.02;;;8.02;;
39740;SDS011;25426;53.478;10.190;2024-02-21T09:04:22;7.65;;;5.38;;
39740;SDS011;25426;53.478;10.190;2024-02-21T09:06:53;8.52;;;4.00;;
39740;SDS011;25426;53.478;10.190;2024-02-21T09:09:24;6.90;;;3.45;;
39740;SDS011;25426;53.478;10.190;2024-02-21T09:11:55;7.85;;;3.03;;
39740;SDS011;25426;53.478;10.190;2024-02-21T09:14:27;7.07;;;3.28;;
39740;SDS011;25426;53.478;10.190;2024-02-21T09:16:58;8.48;;;3.85;;
39740;SDS011;25426;53.478;10.190;2024-02-21T09:19:29;10.70;;;3.88;;
39740;SDS011;25426;53.478;10.190;2024-02-21T09:22:00;11.25;;;7.80;;
39740;SDS011;25426;53.478;10.190;2024-02-21T09:24:31;7.78;;;3.53;;
39740;SDS011;25426;53.478;10.190;2024-02-21T09:27:02;8.57;;;3.45;;
39740;SDS011;25426;53.478;10.190;2024-02-21T09:29:33;7.25;;;3.30;;
39740;SDS011;25426;53.478;10.190;2024-02-21T09:32:04;10.07;;;3.25;;
39740;SDS011;25426;53.478;10.190;2024-02-21T09:34:35;10.20;;;3.38;;
39740;SDS011;25426;53.478;10.190;2024-02-21T09:37:06;6.80;;;3.20;;
39740;SDS011;25426;53.478;10.190;2024-02-21T09:39:38;7.85;;;4.60;;
39740;SDS011;25426;53.478;10.190;2024-02-21T09:42:10;8.43;;;4.88;;
39740;SDS011;25426;53.478;10.190;2024-02-21T09:44:42;9.30;;;3.92;;
39740;SDS011;25426;53.478;10.190;2024-02-21T09:47:18;6.15;;;3.50;;
39740;SDS011;25426;53.478;10.190;2024-02-21T09:49:54;8.63;;;4.55;;
39740;SDS011;25426;53.478;10.190;2024-02-21T09:52:27;8.50;;;4.35;;
39740;SDS011;25426;53.478;10.190;2024-02-21T09:54:58;4.63;;;4.13;;
39740;SDS011;25426;53.478;10.190;2024-02-21T09:57:29;7.95;;;5.00;;
39740;SDS011;25426;53.478;10.190;2024-02-21T10:00:01;5.10;;;4.47;;
39740;SDS011;25426;53.478;10.190;2024-02-21T10:02:42;9.07;;;5.15;;
39740;SDS011;25426;53.478;10.190;2024-02-21T10:05:13;7.97;;;6.38;;
39740;SDS011;25426;53.478;10.190;2024-02-21T10:07:44;10.68;;;6.65;;
39740;SDS011;25426;53.478;10.190;2024-02-21T10:10:15;12.30;;;8.50;;
39740;SDS011;25426;53.478;10.190;2024-02-21T10:12:50;13.85;;;10.07;;
39740;SDS011;25426;53.478;10.190;2024-02-21T10:15:22;12.38;;;8.63;;
39740;SDS011;25426;53.478;10.190;2024-02-21T10:18:01;10.85;;;8.65;;
39740;SDS011;25426;53.478;10.190;2024-02-21T10:20:36;12.07;;;9.25;;
39740;SDS011;25426;53.478;10.190;2024-02-21T10:23:07;19.75;;;10.77;;
39740;SDS011;25426;53.478;10.190;2024-02-21T10:25:39;16.05;;;10.88;;
39740;SDS011;25426;53.478;10.190;2024-02-21T10:28:15;25.10;;;11.38;;
39740;SDS011;25426;53.478;10.190;2024-02-21T10:30:50;17.75;;;12.02;;
39740;SDS011;25426;53.478;10.190;2024-02-21T10:33:22;19.83;;;13.32;;
39740;SDS011;25426;53.478;10.190;2024-02-21T10:36:05;19.98;;;14.98;;
39740;SDS011;25426;53.478;10.190;2024-02-21T10:38:40;19.27;;;14.35;;
39740;SDS011;25426;53.478;10.190;2024-02-21T10:41:12;22.88;;;15.75;;
39740;SDS011;25426;53.478;10.190;2024-02-21T10:43:52;24.23;;;14.95;;
39740;SDS011;25426;53.478;10.190;2024-02-21T10:46:24;28.15;;;16.13;;
39740;SDS011;25426;53.478;10.190;2024-02-21T10:49:04;22.50;;;16.17;;
39740;SDS011;25426;53.478;10.190;2024-02-21T10:51:43;22.52;;;16.27;;
39740;SDS011;25426;53.478;10.190;2024-02-21T10:57:15;27.33;;;17.55;;
39740;SDS011;25426;53.478;10.190;2024-02-21T10:59:47;28.63;;;17.75;;
39740;SDS011;25426;53.478;10.190;2024-02-21T11:02:19;25.88;;;16.08;;
39740;SDS011;25426;53.478;10.190;2024-02-21T11:04:50;23.55;;;15.68;;
39740;SDS011;25426;53.478;10.190;2024-02-21T11:07:22;23.75;;;15.27;;
39740;SDS011;25426;53.478;10.190;2024-02-21T11:09:53;21.23;;;14.95;;
39740;SDS011;25426;53.478;10.190;2024-02-21T11:12:25;19.35;;;13.98;;
39740;SDS011;25426;53.478;10.190;2024-02-21T11:15:07;27.33;;;14.57;;
39740;SDS011;25426;53.478;10.190;2024-02-21T11:17:38;24.05;;;13.70;;
39740;SDS011;25426;53.478;10.190;2024-02-21T11:20:12;18.80;;;12.68;;
39740;SDS011;25426;53.478;10.190;2024-02-21T11:22:44;20.98;;;13.05;;
39740;SDS011;25426;53.478;10.190;2024-02-21T11:25:21;21.13;;;13.65;;
39740;SDS011;25426;53.478;10.190;2024-02-21T11:28:02;17.50;;;13.35;;
39740;SDS011;25426;53.478;10.190;2024-02-21T11:30:35;22.00;;;12.48;;
39740;SDS011;25426;53.478;10.190;2024-02-21T11:33:07;18.52;;;12.55;;
39740;SDS011;25426;53.478;10.190;2024-02-21T11:35:38;16.80;;;11.35;;
39740;SDS011;25426;53.478;10.190;2024-02-21T11:38:13;18.63;;;12.88;;
39740;SDS011;25426;53.478;10.190;2024-02-21T11:40:47;17.25;;;11.93;;
39740;SDS011;25426;53.478;10.190;2024-02-21T11:43:18;17.25;;;11.02;;
39740;SDS011;25426;53.478;10.190;2024-02-21T11:45:49;16.98;;;12.20;;
39740;SDS011;25426;53.478;10.190;2024-02-21T11:48:20;15.10;;;10.73;;
39740;SDS011;25426;53.478;10.190;2024-02-21T11:50:54;16.05;;;10.48;;
39740;SDS011;25426;53.478;10.190;2024-02-21T11:53:26;15.10;;;10.13;;
39740;SDS011;25426;53.478;10.190;2024-02-21T11:56:00;16.98;;;11.48;;
39740;SDS011;25426;53.478;10.190;2024-02-21T11:58:31;15.13;;;10.57;;
39740;SDS011;25426;53.478;10.190;2024-02-21T12:01:02;19.85;;;11.60;;
39740;SDS011;25426;53.478;10.190;2024-02-21T12:03:34;16.45;;;11.27;;
39740;SDS011;25426;53.478;10.190;2024-02-21T12:06:08;16.20;;;11.70;;
39740;SDS011;25426;53.478;10.190;2024-02-21T12:08:42;15.13;;;11.40;;
39740;SDS011;25426;53.478;10.190;2024-02-21T12:11:21;19.85;;;12.13;;
39740;SDS011;25426;53.478;10.190;2024-02-21T12:13:59;14.52;;;10.73;;
39740;SDS011;25426;53.478;10.190;2024-02-21T12:16:35;23.80;;;12.35;;
39740;SDS011;25426;53.478;10.190;2024-02-21T12:19:09;16.70;;;11.48;;
39740;SDS011;25426;53.478;10.190;2024-02-21T12:21:42;16.92;;;12.10;;
39740;SDS011;25426;53.478;10.190;2024-02-21T12:24:15;21.92;;;12.10;;
39740;SDS011;25426;53.478;10.190;2024-02-21T12:26:54;22.38;;;11.15;;
39740;SDS011;25426;53.478;10.190;2024-02-21T12:29:27;20.15;;;11.43;;
39740;SDS011;25426;53.478;10.190;2024-02-21T12:32:00;21.80;;;13.65;;
39740;SDS011;25426;53.478;10.190;2024-02-21T12:34:30;22.35;;;12.40;;
39740;SDS011;25426;53.478;10.190;2024-02-21T12:37:06;18.08;;;11.90;;
39740;SDS011;25426;53.478;10.190;2024-02-21T12:39:37;21.58;;;12.07;;
39740;SDS011;25426;53.478;10.190;2024-02-21T12:42:08;21.25;;;13.18;;
39740;SDS011;25426;53.478;10.190;2024-02-21T12:44:41;19.05;;;13.43;;
39740;SDS011;25426;53.478;10.190;2024-02-21T12:47:12;20.60;;;13.93;;
39740;SDS011;25426;53.478;10.190;2024-02-21T12:49:43;19.63;;;13.48;;
39740;SDS011;25426;53.478;10.190;2024-02-21T12:52:14;23.23;;;14.23;;
39740;SDS011;25426;53.478;10.190;2024-02-21T12:54:46;25.48;;;16.05;;
39740;SDS011;25426;53.478;10.190;2024-02-21T14:48:20;18.30;;;13.25;;
39740;SDS011;25426;53.478;10.190;2024-02-21T14:50:51;15.38;;;12.57;;
39740;SDS011;25426;53.478;10.190;2024-02-21T14:53:22;15.02;;;11.18;;
39740;SDS011;25426;53.478;10.190;2024-02-21T14:55:53;16.63;;;10.93;;
39740;SDS011;25426;53.478;10.190;2024-02-21T14:58:24;12.68;;;9.85;;
39740;SDS011;25426;53.478;10.190;2024-02-21T15:00:54;11.45;;;9.70;;
39740;SDS011;25426;53.478;10.190;2024-02-21T15:03:25;13.75;;;9.10;;
39740;SDS011;25426;53.478;10.190;2024-02-21T15:05:57;16.83;;;9.85;;
39740;SDS011;25426;53.478;10.190;2024-02-21T15:08:28;15.20;;;9.30;;
39740;SDS011;25426;53.478;10.190;2024-02-21T15:10:59;11.88;;;9.20;;
39740;SDS011;25426;53.478;10.190;2024-02-21T15:13:30;16.33;;;8.60;;
39740;SDS011;25426;53.478;10.190;2024-02-21T15:16:01;10.93;;;8.55;;
39740;SDS011;25426;53.478;10.190;2024-02-21T15:18:32;9.88;;;8.40;;
39740;SDS011;25426;53.478;10.190;2024-02-21T15:21:03;11.52;;;8.60;;
39740;SDS011;25426;53.478;10.190;2024-02-21T15:23:34;17.10;;;8.75;;
39740;SDS011;25426;53.478;10.190;2024-02-21T15:26:05;13.05;;;8.65;;
39740;SDS011;25426;53.478;10.190;2024-02-21T15:28:36;13.48;;;8.43;;
39740;SDS011;25426;53.478;10.190;2024-02-21T15:31:07;15.80;;;8.07;;
39740;SDS011;25426;53.478;10.190;2024-02-21T15:33:38;13.98;;;8.25;;
39740;SDS011;25426;53.478;10.190;2024-02-21T15:36:09;12.75;;;8.32;;
39740;SDS011;25426;53.478;10.190;2024-02-21T15:38:40;8.98;;;7.03;;
39740;SDS011;25426;53.478;10.190;2024-02-21T15:41:12;11.55;;;7.47;;
39740;SDS011;25426;53.478;10.190;2024-02-21T15:43:44;11.50;;;6.65;;
39740;SDS011;25426;53.478;10.190;2024-02-21T15:46:15;12.45;;;6.90;;
39740;SDS011;25426;53.478;10.190;2024-02-21T15:48:45;11.48;;;6.85;;
39740;SDS011;25426;53.478;10.190;2024-02-21T15:51:18;8.27;;;6.53;;
39740;SDS011;25426;53.478;10.190;2024-02-21T15:53:49;9.25;;;6.03;;
39740;SDS011;25426;53.478;10.190;2024-02-21T15:56:20;9.80;;;6.18;;
39740;SDS011;25426;53.478;10.190;2024-02-21T15:58:51;9.45;;;5.85;;
39740;SDS011;25426;53.478;10.190;2024-02-21T16:01:22;8.75;;;6.68;;
39740;SDS011;25426;53.478;10.190;2024-02-21T16:03:53;12.90;;;6.53;;
39740;SDS011;25426;53.478;10.190;2024-02-21T16:06:25;7.97;;;6.10;;
39740;SDS011;25426;53.478;10.190;2024-02-21T16:08:56;7.63;;;5.40;;
39740;SDS011;25426;53.478;10.190;2024-02-21T16:11:28;7.57;;;5.38;;
39740;SDS011;25426;53.478;10.190;2024-02-21T16:14:00;12.90;;;5.97;;
39740;SDS011;25426;53.478;10.190;2024-02-21T16:16:32;6.95;;;5.65;;
39740;SDS011;25426;53.478;10.190;2024-02-21T16:19:03;7.35;;;5.55;;
39740;SDS011;25426;53.478;10.190;2024-02-21T16:21:35;10.60;;;5.70;;
39740;SDS011;25426;53.478;10.190;2024-02-21T16:24:10;8.85;;;6.35;;
39740;SDS011;25426;53.478;10.190;2024-02-21T16:26:41;8.63;;;6.03;;
39740;SDS011;25426;53.478;10.190;2024-02-21T16:29:12;7.40;;;5.55;;
39740;SDS011;25426;53.478;10.190;2024-02-21T16:31:43;10.63;;;6.20;;
39740;SDS011;25426;53.478;10.190;2024-02-21T16:34:14;8.55;;;5.57;;
39740;SDS011;25426;53.478;10.190;2024-02-21T16:36:46;9.90;;;5.57;;
39740;SDS011;25426;53.478;10.190;2024-02-21T16:39:17;7.53;;;5.68;;
39740;SDS011;25426;53.478;10.190;2024-02-21T16:41:48;8.63;;;5.97;;
39740;SDS011;25426;53.478;10.190;2024-02-21T16:44:19;7.15;;;5.60;;
39740;SDS011;25426;53.478;10.190;2024-02-21T16:46:50;7.15;;;5.57;;
39740;SDS011;25426;53.478;10.190;2024-02-21T16:49:23;9.90;;;5.80;;
39740;SDS011;25426;53.478;10.190;2024-02-21T16:51:55;9.15;;;5.65;;
39740;SDS011;25426;53.478;10.190;2024-02-21T16:54:26;9.60;;;5.18;;
39740;SDS011;25426;53.478;10.190;2024-02-21T16:56:57;10.20;;;6.03;;
39740;SDS011;25426;53.478;10.190;2024-02-21T16:59:28;7.95;;;5.75;;
39740;SDS011;25426;53.478;10.190;2024-02-21T17:01:59;9.77;;;5.30;;
39740;SDS011;25426;53.478;10.190;2024-02-21T17:04:31;9.65;;;5.45;;
39740;SDS011;25426;53.478;10.190;2024-02-21T17:07:02;10.57;;;5.85;;
39740;SDS011;25426;53.478;10.190;2024-02-21T17:09:33;10.27;;;4.78;;
